sensor_id;sensor_type;location;lat;lon;timestamp;P1;durP1;ratioP1;P2;durP2;ratioP2
68379;SDS011;57711;53.196;19.638;2023-02-11T00:00:22;101.20;;;55.30;;
68379;SDS011;57711;53.196;19.638;2023-02-11T00:03:09;66.20;;;31.20;;
68379;SDS011;57711;53.196;19.638;2023-02-11T00:05:36;73.80;;;35.90;;
68379;SDS011;57711;53.196;19.638;2023-02-11T00:08:03;56.30;;;29.60;;
68379;SDS011;57711;53.196;19.638;2023-02-11T00:10:31;97.20;;;46.60;;
68379;SDS011;57711;53.196;19.638;2023-02-11T00:12:58;184.40;;;100.10;;
68379;SDS011;57711;53.196;19.638;2023-02-11T00:15:25;202.60;;;107.50;;
68379;SDS011;57711;53.196;19.638;2023-02-11T00:17:52;81.00;;;40.70;;
68379;SDS011;57711;53.196;19.638;2023-02-11T00:20:20;78.00;;;38.30;;
68379;SDS011;57711;53.196;19.638;2023-02-11T00:22:47;83.30;;;41.50;;
68379;SDS011;57711;53.196;19.638;2023-02-11T00:25:14;56.20;;;30.00;;
68379;SDS011;57711;53.196;19.638;2023-02-11T00:27:41;56.50;;;30.20;;
68379;SDS011;57711;53.196;19.638;2023-02-11T00:30:09;55.70;;;30.30;;
68379;SDS011;57711;53.196;19.638;2023-02-11T00:32:37;58.50;;;29.30;;
68379;SDS011;57711;53.196;19.638;2023-02-11T00:35:04;50.50;;;24.30;;
68379;SDS011;57711;53.196;19.638;2023-02-11T00:37:31;55.70;;;27.40;;
68379;SDS011;57711;53.196;19.638;2023-02-11T00:40:02;50.70;;;25.10;;
68379;SDS011;57711;53.196;19.638;2023-02-11T00:42:32;58.80;;;28.60;;
68379;SDS011;57711;53.196;19.638;2023-02-11T00:45:01;57.90;;;29.60;;
68379;SDS011;57711;53.196;19.638;2023-02-11T00:47:28;63.50;;;37.50;;
68379;SDS011;57711;53.196;19.638;2023-02-11T00:49:56;48.10;;;25.20;;
68379;SDS011;57711;53.196;19.638;2023-02-11T00:52:26;51.40;;;24.00;;
68379;SDS011;57711;53.196;19.638;2023-02-11T00:54:53;47.90;;;25.60;;
68379;SDS011;57711;53.196;19.638;2023-02-11T00:57:20;70.80;;;30.60;;
68379;SDS011;57711;53.196;19.638;2023-02-11T00:59:48;48.70;;;25.10;;
68379;SDS011;57711;53.196;19.638;2023-02-11T01:02:17;61.60;;;30.50;;
68379;SDS011;57711;53.196;19.638;2023-02-11T01:04:44;60.50;;;28.20;;
68379;SDS011;57711;53.196;19.638;2023-02-11T01:07:11;54.90;;;27.00;;
68379;SDS011;57711;53.196;19.638;2023-02-11T01:09:39;64.20;;;32.80;;
68379;SDS011;57711;53.196;19.638;2023-02-11T01:12:06;46.30;;;25.90;;
68379;SDS011;57711;53.196;19.638;2023-02-11T01:14:33;50.40;;;25.60;;
68379;SDS011;57711;53.196;19.638;2023-02-11T01:17:00;47.00;;;24.40;;
68379;SDS011;57711;53.196;19.638;2023-02-11T01:19:27;52.00;;;26.80;;
68379;SDS011;57711;53.196;19.638;2023-02-11T01:21:55;53.90;;;27.90;;
68379;SDS011;57711;53.196;19.638;2023-02-11T01:24:22;61.40;;;28.00;;
68379;SDS011;57711;53.196;19.638;2023-02-11T01:26:49;51.60;;;25.30;;
68379;SDS011;57711;53.196;19.638;2023-02-11T01:29:16;53.10;;;24.50;;
68379;SDS011;57711;53.196;19.638;2023-02-11T01:31:43;52.90;;;25.50;;
68379;SDS011;57711;53.196;19.638;2023-02-11T01:34:11;49.90;;;27.60;;
68379;SDS011;57711;53.196;19.638;2023-02-11T01:36:38;59.70;;;28.30;;
68379;SDS011;57711;53.196;19.638;2023-02-11T01:39:06;53.90;;;28.40;;
68379;SDS011;57711;53.196;19.638;2023-02-11T01:41:34;46.90;;;23.30;;
68379;SDS011;57711;53.196;19.638;2023-02-11T01:47:14;50.50;;;24.40;;
68379;SDS011;57711;53.196;19.638;2023-02-11T01:49:43;48.00;;;26.10;;
68379;SDS011;57711;53.196;19.638;2023-02-11T01:52:17;58.70;;;28.90;;
68379;SDS011;57711;53.196;19.638;2023-02-11T01:54:58;62.10;;;32.60;;
68379;SDS011;57711;53.196;19.638;2023-02-11T01:57:48;56.20;;;27.80;;
68379;SDS011;57711;53.196;19.638;2023-02-11T02:00:30;56.40;;;29.80;;
68379;SDS011;57711;53.196;19.638;2023-02-11T02:11:00;191.90;;;73.50;;
68379;SDS011;57711;53.196;19.638;2023-02-11T02:13:32;345.60;;;139.50;;
68379;SDS011;57711;53.196;19.638;2023-02-11T02:16:01;517.40;;;260.70;;
68379;SDS011;57711;53.196;19.638;2023-02-11T02:38:00;192.90;;;87.10;;
68379;SDS011;57711;53.196;19.638;2023-02-11T02:40:30;115.20;;;52.00;;
68379;SDS011;57711;53.196;19.638;2023-02-11T02:43:01;97.20;;;46.60;;
68379;SDS011;57711;53.196;19.638;2023-02-11T02:45:31;82.60;;;40.80;;
68379;SDS011;57711;53.196;19.638;2023-02-11T02:47:59;99.50;;;53.70;;
68379;SDS011;57711;53.196;19.638;2023-02-11T02:50:27;69.80;;;38.00;;
68379;SDS011;57711;53.196;19.638;2023-02-11T03:01:17;51.20;;;25.40;;
68379;SDS011;57711;53.196;19.638;2023-02-11T03:04:00;45.40;;;25.20;;
68379;SDS011;57711;53.196;19.638;2023-02-11T03:09:30;46.00;;;23.90;;
68379;SDS011;57711;53.196;19.638;2023-02-11T03:12:04;59.00;;;33.60;;
68379;SDS011;57711;53.196;19.638;2023-02-11T03:14:33;47.50;;;23.10;;
68379;SDS011;57711;53.196;19.638;2023-02-11T03:17:02;49.00;;;24.70;;
68379;SDS011;57711;53.196;19.638;2023-02-11T03:19:33;51.70;;;22.90;;
68379;SDS011;57711;53.196;19.638;2023-02-11T03:22:06;51.20;;;25.70;;
68379;SDS011;57711;53.196;19.638;2023-02-11T03:24:38;56.10;;;28.20;;
68379;SDS011;57711;53.196;19.638;2023-02-11T03:30:09;46.90;;;23.30;;
68379;SDS011;57711;53.196;19.638;2023-02-11T03:32:41;48.80;;;22.70;;
68379;SDS011;57711;53.196;19.638;2023-02-11T03:35:20;43.10;;;21.50;;
68379;SDS011;57711;53.196;19.638;2023-02-11T03:37:51;47.40;;;23.50;;
68379;SDS011;57711;53.196;19.638;2023-02-11T03:40:27;44.40;;;21.00;;
68379;SDS011;57711;53.196;19.638;2023-02-11T03:42:58;43.50;;;22.30;;
68379;SDS011;57711;53.196;19.638;2023-02-11T03:45:31;41.30;;;22.20;;
68379;SDS011;57711;53.196;19.638;2023-02-11T03:48:00;43.10;;;20.90;;
68379;SDS011;57711;53.196;19.638;2023-02-11T03:50:31;48.80;;;23.90;;
68379;SDS011;57711;53.196;19.638;2023-02-11T03:53:01;39.80;;;19.30;;
68379;SDS011;57711;53.196;19.638;2023-02-11T03:55:31;37.50;;;21.30;;
68379;SDS011;57711;53.196;19.638;2023-02-11T03:58:02;44.10;;;22.80;;
68379;SDS011;57711;53.196;19.638;2023-02-11T04:00:31;47.10;;;22.80;;
68379;SDS011;57711;53.196;19.638;2023-02-11T04:03:00;38.00;;;21.10;;
68379;SDS011;57711;53.196;19.638;2023-02-11T04:05:27;44.00;;;23.10;;
68379;SDS011;57711;53.196;19.638;2023-02-11T04:07:55;39.50;;;21.30;;
68379;SDS011;57711;53.196;19.638;2023-02-11T04:10:22;41.70;;;21.30;;
68379;SDS011;57711;53.196;19.638;2023-02-11T04:12:50;41.60;;;21.80;;
68379;SDS011;57711;53.196;19.638;2023-02-11T04:15:17;46.50;;;23.70;;
68379;SDS011;57711;53.196;19.638;2023-02-11T04:17:44;47.10;;;25.50;;
68379;SDS011;57711;53.196;19.638;2023-02-11T04:20:11;51.40;;;24.30;;
68379;SDS011;57711;53.196;19.638;2023-02-11T04:22:39;43.10;;;20.60;;
68379;SDS011;57711;53.196;19.638;2023-02-11T04:25:07;41.40;;;21.40;;
68379;SDS011;57711;53.196;19.638;2023-02-11T04:27:35;39.00;;;19.10;;
68379;SDS011;57711;53.196;19.638;2023-02-11T04:30:03;40.30;;;21.30;;
68379;SDS011;57711;53.196;19.638;2023-02-11T04:32:31;43.20;;;23.30;;
68379;SDS011;57711;53.196;19.638;2023-02-11T04:34:58;44.00;;;21.70;;
68379;SDS011;57711;53.196;19.638;2023-02-11T04:37:25;48.40;;;25.20;;
68379;SDS011;57711;53.196;19.638;2023-02-11T04:39:52;44.40;;;22.40;;
68379;SDS011;57711;53.196;19.638;2023-02-11T04:42:19;45.90;;;22.20;;
68379;SDS011;57711;53.196;19.638;2023-02-11T04:44:47;51.70;;;24.60;;
68379;SDS011;57711;53.196;19.638;2023-02-11T04:47:14;49.50;;;25.30;;
68379;SDS011;57711;53.196;19.638;2023-02-11T04:49:41;42.80;;;21.70;;
68379;SDS011;57711;53.196;19.638;2023-02-11T04:52:09;46.70;;;23.90;;
68379;SDS011;57711;53.196;19.638;2023-02-11T04:54:36;45.20;;;22.90;;
68379;SDS011;57711;53.196;19.638;2023-02-11T04:57:03;51.60;;;25.10;;
68379;SDS011;57711;53.196;19.638;2023-02-11T04:59:30;43.90;;;23.70;;
68379;SDS011;57711;53.196;19.638;2023-02-11T05:01:57;49.40;;;24.90;;
68379;SDS011;57711;53.196;19.638;2023-02-11T05:04:24;41.50;;;21.40;;
68379;SDS011;57711;53.196;19.638;2023-02-11T05:06:52;47.50;;;24.40;;
68379;SDS011;57711;53.196;19.638;2023-02-11T05:09:19;44.90;;;22.50;;
68379;SDS011;57711;53.196;19.638;2023-02-11T05:11:46;44.70;;;23.60;;
68379;SDS011;57711;53.196;19.638;2023-02-11T05:14:13;46.80;;;25.90;;
68379;SDS011;57711;53.196;19.638;2023-02-11T05:16:40;53.30;;;26.00;;
68379;SDS011;57711;53.196;19.638;2023-02-11T05:19:08;47.60;;;25.70;;
68379;SDS011;57711;53.196;19.638;2023-02-11T05:21:35;46.20;;;22.50;;
68379;SDS011;57711;53.196;19.638;2023-02-11T05:24:02;50.70;;;26.20;;
68379;SDS011;57711;53.196;19.638;2023-02-11T05:26:29;55.00;;;27.10;;
68379;SDS011;57711;53.196;19.638;2023-02-11T05:28:57;56.20;;;26.70;;
68379;SDS011;57711;53.196;19.638;2023-02-11T05:31:25;49.90;;;23.80;;
68379;SDS011;57711;53.196;19.638;2023-02-11T05:33:52;47.10;;;25.30;;
68379;SDS011;57711;53.196;19.638;2023-02-11T05:36:19;52.80;;;28.10;;
68379;SDS011;57711;53.196;19.638;2023-02-11T05:38:46;62.40;;;31.60;;
68379;SDS011;57711;53.196;19.638;2023-02-11T05:41:13;48.90;;;27.20;;
68379;SDS011;57711;53.196;19.638;2023-02-11T05:43:40;56.50;;;29.60;;
68379;SDS011;57711;53.196;19.638;2023-02-11T05:46:07;52.40;;;28.80;;
68379;SDS011;57711;53.196;19.638;2023-02-11T05:48:35;63.50;;;33.70;;
68379;SDS011;57711;53.196;19.638;2023-02-11T05:51:02;59.90;;;31.40;;
68379;SDS011;57711;53.196;19.638;2023-02-11T05:53:29;62.30;;;34.20;;
68379;SDS011;57711;53.196;19.638;2023-02-11T05:55:57;64.40;;;30.80;;
68379;SDS011;57711;53.196;19.638;2023-02-11T05:58:24;66.10;;;33.20;;
68379;SDS011;57711;53.196;19.638;2023-02-11T06:00:51;77.10;;;36.60;;
68379;SDS011;57711;53.196;19.638;2023-02-11T06:03:18;86.80;;;42.60;;
68379;SDS011;57711;53.196;19.638;2023-02-11T06:05:46;80.40;;;36.20;;
68379;SDS011;57711;53.196;19.638;2023-02-11T06:08:13;73.40;;;36.10;;
68379;SDS011;57711;53.196;19.638;2023-02-11T06:10:43;85.00;;;36.10;;
68379;SDS011;57711;53.196;19.638;2023-02-11T06:13:10;91.50;;;38.30;;
68379;SDS011;57711;53.196;19.638;2023-02-11T06:15:38;98.30;;;42.90;;
68379;SDS011;57711;53.196;19.638;2023-02-11T06:18:06;83.50;;;39.80;;
68379;SDS011;57711;53.196;19.638;2023-02-11T06:20:33;71.30;;;37.80;;
68379;SDS011;57711;53.196;19.638;2023-02-11T06:23:01;57.40;;;29.60;;
68379;SDS011;57711;53.196;19.638;2023-02-11T06:25:28;57.40;;;30.60;;
68379;SDS011;57711;53.196;19.638;2023-02-11T06:27:55;55.30;;;30.10;;
68379;SDS011;57711;53.196;19.638;2023-02-11T06:30:23;71.40;;;37.30;;
68379;SDS011;57711;53.196;19.638;2023-02-11T06:32:50;63.60;;;32.40;;
68379;SDS011;57711;53.196;19.638;2023-02-11T06:35:17;58.80;;;32.40;;
68379;SDS011;57711;53.196;19.638;2023-02-11T06:37:44;60.90;;;30.10;;
68379;SDS011;57711;53.196;19.638;2023-02-11T06:40:12;66.60;;;36.20;;
68379;SDS011;57711;53.196;19.638;2023-02-11T06:42:39;60.40;;;32.60;;
68379;SDS011;57711;53.196;19.638;2023-02-11T06:45:07;68.10;;;34.90;;
68379;SDS011;57711;53.196;19.638;2023-02-11T06:47:36;70.40;;;35.80;;
68379;SDS011;57711;53.196;19.638;2023-02-11T06:50:04;71.90;;;33.90;;
68379;SDS011;57711;53.196;19.638;2023-02-11T06:52:33;56.30;;;30.30;;
68379;SDS011;57711;53.196;19.638;2023-02-11T06:55:00;57.30;;;30.00;;
68379;SDS011;57711;53.196;19.638;2023-02-11T06:57:28;56.30;;;31.50;;
68379;SDS011;57711;53.196;19.638;2023-02-11T06:59:56;55.80;;;29.20;;
68379;SDS011;57711;53.196;19.638;2023-02-11T07:02:23;70.10;;;35.10;;
68379;SDS011;57711;53.196;19.638;2023-02-11T07:04:51;92.80;;;46.70;;
68379;SDS011;57711;53.196;19.638;2023-02-11T07:07:18;110.70;;;60.70;;
68379;SDS011;57711;53.196;19.638;2023-02-11T07:09:45;79.50;;;40.60;;
68379;SDS011;57711;53.196;19.638;2023-02-11T07:12:12;73.50;;;38.10;;
68379;SDS011;57711;53.196;19.638;2023-02-11T07:14:39;77.40;;;44.30;;
68379;SDS011;57711;53.196;19.638;2023-02-11T07:17:06;78.90;;;42.40;;
68379;SDS011;57711;53.196;19.638;2023-02-11T07:19:34;73.70;;;37.70;;
68379;SDS011;57711;53.196;19.638;2023-02-11T07:22:01;85.00;;;46.40;;
68379;SDS011;57711;53.196;19.638;2023-02-11T07:24:28;78.00;;;43.10;;
68379;SDS011;57711;53.196;19.638;2023-02-11T07:26:55;81.10;;;40.30;;
68379;SDS011;57711;53.196;19.638;2023-02-11T07:29:22;86.10;;;44.80;;
68379;SDS011;57711;53.196;19.638;2023-02-11T07:31:49;98.80;;;50.70;;
68379;SDS011;57711;53.196;19.638;2023-02-11T07:34:16;73.70;;;39.40;;
68379;SDS011;57711;53.196;19.638;2023-02-11T07:36:44;111.70;;;69.20;;
68379;SDS011;57711;53.196;19.638;2023-02-11T07:39:11;89.60;;;48.50;;
68379;SDS011;57711;53.196;19.638;2023-02-11T07:41:39;81.10;;;43.50;;
68379;SDS011;57711;53.196;19.638;2023-02-11T07:44:06;75.10;;;40.80;;
68379;SDS011;57711;53.196;19.638;2023-02-11T07:46:34;66.90;;;37.30;;
68379;SDS011;57711;53.196;19.638;2023-02-11T07:49:01;80.30;;;41.40;;
68379;SDS011;57711;53.196;19.638;2023-02-11T07:51:29;68.90;;;36.90;;
68379;SDS011;57711;53.196;19.638;2023-02-11T07:53:57;62.90;;;34.30;;
68379;SDS011;57711;53.196;19.638;2023-02-11T07:56:26;58.30;;;31.90;;
68379;SDS011;57711;53.196;19.638;2023-02-11T07:58:54;54.90;;;30.90;;
68379;SDS011;57711;53.196;19.638;2023-02-11T08:01:23;57.00;;;31.70;;
68379;SDS011;57711;53.196;19.638;2023-02-11T08:03:54;88.60;;;47.70;;
68379;SDS011;57711;53.196;19.638;2023-02-11T08:06:23;76.00;;;40.40;;
68379;SDS011;57711;53.196;19.638;2023-02-11T08:08:51;60.60;;;32.90;;
68379;SDS011;57711;53.196;19.638;2023-02-11T08:11:20;61.70;;;33.40;;
68379;SDS011;57711;53.196;19.638;2023-02-11T08:13:52;59.30;;;33.90;;
68379;SDS011;57711;53.196;19.638;2023-02-11T08:18:50;50.30;;;28.40;;
68379;SDS011;57711;53.196;19.638;2023-02-11T08:21:19;55.40;;;29.60;;
68379;SDS011;57711;53.196;19.638;2023-02-11T08:23:47;58.70;;;30.40;;
68379;SDS011;57711;53.196;19.638;2023-02-11T08:26:19;56.00;;;29.40;;
68379;SDS011;57711;53.196;19.638;2023-02-11T08:28:48;60.30;;;33.00;;
68379;SDS011;57711;53.196;19.638;2023-02-11T08:31:18;63.20;;;32.60;;
68379;SDS011;57711;53.196;19.638;2023-02-11T08:33:49;54.20;;;30.40;;
68379;SDS011;57711;53.196;19.638;2023-02-11T08:36:17;62.50;;;38.40;;
68379;SDS011;57711;53.196;19.638;2023-02-11T08:38:48;65.00;;;38.30;;
68379;SDS011;57711;53.196;19.638;2023-02-11T08:41:16;63.50;;;31.00;;
68379;SDS011;57711;53.196;19.638;2023-02-11T08:43:43;71.20;;;42.30;;
68379;SDS011;57711;53.196;19.638;2023-02-11T08:46:12;55.10;;;28.00;;
68379;SDS011;57711;53.196;19.638;2023-02-11T08:48:41;103.10;;;50.90;;
68379;SDS011;57711;53.196;19.638;2023-02-11T08:51:09;63.50;;;34.60;;
68379;SDS011;57711;53.196;19.638;2023-02-11T08:53:40;63.30;;;32.60;;
68379;SDS011;57711;53.196;19.638;2023-02-11T08:56:08;74.80;;;41.40;;
68379;SDS011;57711;53.196;19.638;2023-02-11T08:58:39;58.00;;;33.20;;
68379;SDS011;57711;53.196;19.638;2023-02-11T09:01:10;60.00;;;31.90;;
68379;SDS011;57711;53.196;19.638;2023-02-11T09:03:39;70.80;;;35.20;;
68379;SDS011;57711;53.196;19.638;2023-02-11T09:06:07;63.20;;;32.60;;
68379;SDS011;57711;53.196;19.638;2023-02-11T09:08:36;59.10;;;33.40;;
68379;SDS011;57711;53.196;19.638;2023-02-11T09:11:04;58.30;;;32.30;;
68379;SDS011;57711;53.196;19.638;2023-02-11T09:13:32;58.60;;;28.40;;
68379;SDS011;57711;53.196;19.638;2023-02-11T09:15:59;57.20;;;28.40;;
68379;SDS011;57711;53.196;19.638;2023-02-11T09:18:27;54.40;;;28.40;;
68379;SDS011;57711;53.196;19.638;2023-02-11T09:21:05;59.60;;;30.70;;
68379;SDS011;57711;53.196;19.638;2023-02-11T09:23:34;69.00;;;34.60;;
68379;SDS011;57711;53.196;19.638;2023-02-11T09:26:05;58.20;;;29.70;;
68379;SDS011;57711;53.196;19.638;2023-02-11T09:28:35;64.10;;;35.50;;
68379;SDS011;57711;53.196;19.638;2023-02-11T09:31:06;59.90;;;31.00;;
68379;SDS011;57711;53.196;19.638;2023-02-11T09:33:35;74.10;;;36.60;;
68379;SDS011;57711;53.196;19.638;2023-02-11T09:36:03;57.20;;;31.90;;
68379;SDS011;57711;53.196;19.638;2023-02-11T09:38:32;71.80;;;37.00;;
68379;SDS011;57711;53.196;19.638;2023-02-11T09:40:59;67.00;;;31.50;;
68379;SDS011;57711;53.196;19.638;2023-02-11T09:43:36;70.00;;;33.10;;
68379;SDS011;57711;53.196;19.638;2023-02-11T09:46:12;56.30;;;30.00;;
68379;SDS011;57711;53.196;19.638;2023-02-11T09:48:42;60.00;;;31.10;;
68379;SDS011;57711;53.196;19.638;2023-02-11T09:51:15;59.60;;;33.20;;
68379;SDS011;57711;53.196;19.638;2023-02-11T09:53:46;71.80;;;37.40;;
68379;SDS011;57711;53.196;19.638;2023-02-11T09:56:20;58.90;;;31.00;;
68379;SDS011;57711;53.196;19.638;2023-02-11T09:58:48;56.40;;;26.90;;
68379;SDS011;57711;53.196;19.638;2023-02-11T10:07:14;50.30;;;26.00;;
68379;SDS011;57711;53.196;19.638;2023-02-11T10:20:20;50.00;;;26.50;;
68379;SDS011;57711;53.196;19.638;2023-02-11T10:22:53;41.70;;;22.60;;
68379;SDS011;57711;53.196;19.638;2023-02-11T10:25:24;44.90;;;24.40;;
68379;SDS011;57711;53.196;19.638;2023-02-11T10:27:54;47.40;;;29.00;;
68379;SDS011;57711;53.196;19.638;2023-02-11T10:30:36;120.50;;;60.70;;
68379;SDS011;57711;53.196;19.638;2023-02-11T10:33:17;453.90;;;144.20;;
68379;SDS011;57711;53.196;19.638;2023-02-11T10:35:51;429.40;;;123.00;;
68379;SDS011;57711;53.196;19.638;2023-02-11T10:38:18;242.30;;;70.70;;
68379;SDS011;57711;53.196;19.638;2023-02-11T10:40:45;159.30;;;61.00;;
68379;SDS011;57711;53.196;19.638;2023-02-11T10:43:13;112.10;;;51.40;;
68379;SDS011;57711;53.196;19.638;2023-02-11T10:45:46;72.90;;;36.00;;
68379;SDS011;57711;53.196;19.638;2023-02-11T10:56:46;45.50;;;24.50;;
68379;SDS011;57711;53.196;19.638;2023-02-11T10:59:26;45.90;;;25.90;;
68379;SDS011;57711;53.196;19.638;2023-02-11T11:01:56;51.30;;;28.70;;
68379;SDS011;57711;53.196;19.638;2023-02-11T11:04:44;55.20;;;31.00;;
68379;SDS011;57711;53.196;19.638;2023-02-11T11:07:20;46.40;;;25.30;;
68379;SDS011;57711;53.196;19.638;2023-02-11T11:14:59;50.90;;;27.90;;
68379;SDS011;57711;53.196;19.638;2023-02-11T11:17:29;53.80;;;31.30;;
68379;SDS011;57711;53.196;19.638;2023-02-11T11:20:30;51.30;;;27.80;;
68379;SDS011;57711;53.196;19.638;2023-02-11T11:25:34;46.60;;;28.20;;
68379;SDS011;57711;53.196;19.638;2023-02-11T11:28:15;46.20;;;27.70;;
68379;SDS011;57711;53.196;19.638;2023-02-11T11:30:47;47.30;;;23.90;;
68379;SDS011;57711;53.196;19.638;2023-02-11T11:33:18;47.80;;;26.70;;
68379;SDS011;57711;53.196;19.638;2023-02-11T11:35:56;50.30;;;26.20;;
68379;SDS011;57711;53.196;19.638;2023-02-11T11:38:29;44.90;;;24.10;;
68379;SDS011;57711;53.196;19.638;2023-02-11T11:46:32;47.90;;;26.20;;
68379;SDS011;57711;53.196;19.638;2023-02-11T11:49:16;46.50;;;24.70;;
68379;SDS011;57711;53.196;19.638;2023-02-11T11:51:54;45.00;;;26.30;;
68379;SDS011;57711;53.196;19.638;2023-02-11T11:54:31;43.70;;;26.00;;
68379;SDS011;57711;53.196;19.638;2023-02-11T11:57:02;42.70;;;24.80;;
68379;SDS011;57711;53.196;19.638;2023-02-11T11:59:38;51.50;;;27.50;;
68379;SDS011;57711;53.196;19.638;2023-02-11T12:02:16;42.30;;;23.50;;
68379;SDS011;57711;53.196;19.638;2023-02-11T12:05:00;39.10;;;20.30;;
68379;SDS011;57711;53.196;19.638;2023-02-11T12:13:38;40.30;;;21.60;;
68379;SDS011;57711;53.196;19.638;2023-02-11T12:48:36;22.80;;;13.40;;
68379;SDS011;57711;53.196;19.638;2023-02-11T12:59:39;21.30;;;12.90;;
68379;SDS011;57711;53.196;19.638;2023-02-11T13:04:55;25.00;;;15.30;;
68379;SDS011;57711;53.196;19.638;2023-02-11T13:07:35;22.20;;;13.20;;
68379;SDS011;57711;53.196;19.638;2023-02-11T13:10:20;22.70;;;12.80;;
68379;SDS011;57711;53.196;19.638;2023-02-11T13:12:48;23.30;;;15.10;;
68379;SDS011;57711;53.196;19.638;2023-02-11T13:15:36;25.80;;;14.30;;
68379;SDS011;57711;53.196;19.638;2023-02-11T13:20:54;21.60;;;11.10;;
68379;SDS011;57711;53.196;19.638;2023-02-11T13:23:33;21.40;;;14.20;;
68379;SDS011;57711;53.196;19.638;2023-02-11T13:28:55;43.40;;;22.30;;
68379;SDS011;57711;53.196;19.638;2023-02-11T13:31:35;26.90;;;15.30;;
68379;SDS011;57711;53.196;19.638;2023-02-11T13:34:02;23.10;;;13.50;;
68379;SDS011;57711;53.196;19.638;2023-02-11T13:36:29;25.70;;;14.70;;
68379;SDS011;57711;53.196;19.638;2023-02-11T13:38:59;25.30;;;15.40;;
68379;SDS011;57711;53.196;19.638;2023-02-11T13:41:38;20.70;;;12.50;;
68379;SDS011;57711;53.196;19.638;2023-02-11T13:46:47;19.00;;;11.50;;
68379;SDS011;57711;53.196;19.638;2023-02-11T13:52:20;29.80;;;17.90;;
68379;SDS011;57711;53.196;19.638;2023-02-11T13:54:48;26.90;;;15.90;;
68379;SDS011;57711;53.196;19.638;2023-02-11T14:02:27;41.80;;;24.90;;
68379;SDS011;57711;53.196;19.638;2023-02-11T14:05:20;95.70;;;43.40;;
68379;SDS011;57711;53.196;19.638;2023-02-11T14:10:58;84.50;;;38.10;;
68379;SDS011;57711;53.196;19.638;2023-02-11T14:19:04;57.00;;;31.20;;
68379;SDS011;57711;53.196;19.638;2023-02-11T14:21:41;70.70;;;39.40;;
68379;SDS011;57711;53.196;19.638;2023-02-11T14:34:46;147.10;;;75.20;;
68379;SDS011;57711;53.196;19.638;2023-02-11T14:40:24;74.80;;;39.80;;
68379;SDS011;57711;53.196;19.638;2023-02-11T14:42:56;66.10;;;33.20;;
68379;SDS011;57711;53.196;19.638;2023-02-11T14:48:05;93.50;;;46.80;;
68379;SDS011;57711;53.196;19.638;2023-02-11T14:50:45;81.00;;;40.20;;
68379;SDS011;57711;53.196;19.638;2023-02-11T14:53:18;37.70;;;20.50;;
68379;SDS011;57711;53.196;19.638;2023-02-11T14:55:49;42.80;;;18.80;;
68379;SDS011;57711;53.196;19.638;2023-02-11T14:58:21;32.20;;;18.90;;
68379;SDS011;57711;53.196;19.638;2023-02-11T15:03:37;37.40;;;24.40;;
68379;SDS011;57711;53.196;19.638;2023-02-11T15:08:34;39.60;;;24.00;;
68379;SDS011;57711;53.196;19.638;2023-02-11T15:11:06;38.50;;;26.00;;
68379;SDS011;57711;53.196;19.638;2023-02-11T15:13:37;54.90;;;33.20;;
68379;SDS011;57711;53.196;19.638;2023-02-11T15:16:06;25.60;;;13.40;;
68379;SDS011;57711;53.196;19.638;2023-02-11T15:18:39;31.50;;;14.80;;
68379;SDS011;57711;53.196;19.638;2023-02-11T15:21:09;48.80;;;33.30;;
68379;SDS011;57711;53.196;19.638;2023-02-11T15:23:36;23.10;;;15.40;;
68379;SDS011;57711;53.196;19.638;2023-02-11T15:26:12;23.00;;;12.30;;
68379;SDS011;57711;53.196;19.638;2023-02-11T15:28:43;31.10;;;21.70;;
68379;SDS011;57711;53.196;19.638;2023-02-11T15:31:16;37.90;;;25.80;;
68379;SDS011;57711;53.196;19.638;2023-02-11T15:33:45;92.50;;;55.60;;
68379;SDS011;57711;53.196;19.638;2023-02-11T15:36:13;39.30;;;22.00;;
68379;SDS011;57711;53.196;19.638;2023-02-11T15:38:41;30.80;;;17.70;;
68379;SDS011;57711;53.196;19.638;2023-02-11T15:41:28;23.40;;;14.60;;
68379;SDS011;57711;53.196;19.638;2023-02-11T15:44:03;36.60;;;25.20;;
68379;SDS011;57711;53.196;19.638;2023-02-11T15:46:39;60.40;;;36.60;;
68379;SDS011;57711;53.196;19.638;2023-02-11T15:49:12;26.60;;;14.40;;
68379;SDS011;57711;53.196;19.638;2023-02-11T15:51:44;34.80;;;22.40;;
68379;SDS011;57711;53.196;19.638;2023-02-11T15:54:23;34.50;;;21.00;;
68379;SDS011;57711;53.196;19.638;2023-02-11T15:56:53;21.40;;;13.50;;
68379;SDS011;57711;53.196;19.638;2023-02-11T15:59:28;24.40;;;12.70;;
68379;SDS011;57711;53.196;19.638;2023-02-11T16:02:05;20.50;;;10.80;;
68379;SDS011;57711;53.196;19.638;2023-02-11T16:04:56;25.90;;;14.50;;
68379;SDS011;57711;53.196;19.638;2023-02-11T16:12:52;62.20;;;33.10;;
68379;SDS011;57711;53.196;19.638;2023-02-11T16:18:14;22.60;;;12.50;;
68379;SDS011;57711;53.196;19.638;2023-02-11T16:21:02;28.90;;;16.00;;
68379;SDS011;57711;53.196;19.638;2023-02-11T16:23:32;23.70;;;12.60;;
68379;SDS011;57711;53.196;19.638;2023-02-11T16:26:07;29.40;;;16.60;;
68379;SDS011;57711;53.196;19.638;2023-02-11T16:28:45;35.00;;;17.10;;
68379;SDS011;57711;53.196;19.638;2023-02-11T16:31:12;83.70;;;36.00;;
68379;SDS011;57711;53.196;19.638;2023-02-11T16:33:40;117.40;;;45.80;;
68379;SDS011;57711;53.196;19.638;2023-02-11T16:36:14;476.00;;;121.10;;
68379;SDS011;57711;53.196;19.638;2023-02-11T16:38:44;499.60;;;125.20;;
68379;SDS011;57711;53.196;19.638;2023-02-11T16:41:11;329.60;;;66.80;;
68379;SDS011;57711;53.196;19.638;2023-02-11T16:43:39;219.80;;;59.20;;
68379;SDS011;57711;53.196;19.638;2023-02-11T16:46:06;250.50;;;74.20;;
68379;SDS011;57711;53.196;19.638;2023-02-11T16:48:35;113.90;;;44.80;;
68379;SDS011;57711;53.196;19.638;2023-02-11T16:51:03;87.30;;;39.30;;
68379;SDS011;57711;53.196;19.638;2023-02-11T16:53:33;51.00;;;26.20;;
68379;SDS011;57711;53.196;19.638;2023-02-11T16:56:00;71.90;;;31.70;;
68379;SDS011;57711;53.196;19.638;2023-02-11T16:58:27;62.90;;;30.50;;
68379;SDS011;57711;53.196;19.638;2023-02-11T17:00:55;28.30;;;15.10;;
68379;SDS011;57711;53.196;19.638;2023-02-11T17:03:23;30.20;;;13.70;;
68379;SDS011;57711;53.196;19.638;2023-02-11T17:05:55;34.60;;;15.70;;
68379;SDS011;57711;53.196;19.638;2023-02-11T17:08:22;403.70;;;86.90;;
68379;SDS011;57711;53.196;19.638;2023-02-11T17:10:49;573.40;;;152.40;;
68379;SDS011;57711;53.196;19.638;2023-02-11T17:13:17;183.10;;;39.80;;
68379;SDS011;57711;53.196;19.638;2023-02-11T17:15:44;145.40;;;43.20;;
68379;SDS011;57711;53.196;19.638;2023-02-11T17:18:12;151.10;;;53.70;;
68379;SDS011;57711;53.196;19.638;2023-02-11T17:20:42;72.50;;;25.40;;
68379;SDS011;57711;53.196;19.638;2023-02-11T17:23:09;47.50;;;17.80;;
68379;SDS011;57711;53.196;19.638;2023-02-11T17:25:37;29.80;;;13.20;;
68379;SDS011;57711;53.196;19.638;2023-02-11T17:28:05;29.40;;;15.10;;
68379;SDS011;57711;53.196;19.638;2023-02-11T17:30:34;23.40;;;10.60;;
68379;SDS011;57711;53.196;19.638;2023-02-11T17:33:01;33.80;;;14.60;;
68379;SDS011;57711;53.196;19.638;2023-02-11T17:35:28;20.30;;;8.10;;